Date,TemperatureHighF,TemperatureAvgF,TemperatureLowF,DewpointHighF,DewpointAvgF,DewpointLowF,HumidityHigh,HumidityAvg,HumidityLow,PressureMaxIn,PressureMinIn,WindSpeedMaxMPH,WindSpeedAvgMPH,GustSpeedMaxMPH,PrecipitationSumIn
2013-1-1,33,33,32,33,33,32,100,99,99,30.10,29.97,0,0,0,0.00
2013-1-2,34,32,30,34,32,30,100,100,99,30.18,30.07,0,0,0,0.00
2013-1-3,34,30,26,33,28,-100,100,98,97,30.23,30.09,0,-30,0,0.00
2013-1-4,34,29,26,34,29,25,100,99,96,30.27,30.21,0,-21,0,0.00
2013-1-5,34,31,26,34,30,25,100,99,96,30.24,30.04,0,0,0,0.00
2013-1-6,36,31,26,36,29,21,100,92,79,30.29,29.92,0,0,0,0.00
2013-1-7,45,29,21,32,24,18,92,82,53,30.36,30.13,0,0,0,0.00
2013-1-8,52,33,22,35,26,18,93,79,44,30.19,30.11,0,0,0,0.00
2013-1-9,51,42,31,40,36,28,96,80,53,30.34,30.09,0,0,0,0.00
2013-1-10,42,40,35,40,34,29,96,82,67,30.36,30.05,0,0,0,0.00
2013-1-11,61,54,51,54,50,47,100,85,67,29.83,29.74,0,0,0,0.00
2013-1-12,67,57,49,56,52,45,98,85,64,29.91,29.64,0,0,0,0.00
2013-1-13,57,36,23,56,32,-100,98,93,83,30.14,29.58,0,-63,0,0.00
2013-1-14,24,21,17,19,14,-100,86,79,73,30.37,30.13,0,-86,0,0.00
2013-1-15,32,26,20,22,15,-100,84,73,58,30.30,30.01,0,-71,0,0.00
2013-1-16,35,29,24,23,18,-100,88,74,52,30.02,29.89,0,-147,0,0.00
2013-1-17,40,31,25,29,10,-100,82,66,54,30.34,30.00,0,-136,0,0.00
2013-1-18,43,32,20,25,19,16,85,62,37,30.40,30.06,0,-77,0,0.00
2013-1-19,53,44,37,37,30,23,73,58,47,30.07,29.80,0,-32,0,0.00
2013-1-20,44,29,21,36,16,8,74,58,42,30.19,29.85,0,-89,0,0.00
2013-1-21,18,15,11,4,-6,-100,58,47,46,30.16,30.02,0,-316,0,0.00
2013-1-22,15,10,5,-2,-12,-100,68,50,44,30.30,30.14,0,-127,0,0.00
2013-1-23,24,18,11,13,-4,-100,69,52,45,30.26,30.02,0,-246,0,0.00
2013-1-24,26,19,13,12,7,2,78,59,37,30.51,30.07,0,-95,0,0.00
2013-1-25,27,23,19,19,13,3,87,67,45,30.30,29.96,0,-46,0,0.00
2013-1-26,36,26,14,21,9,-100,87,63,50,30.33,30.15,0,-96,0,0.00
2013-1-27,38,28,20,37,21,-100,97,79,69,30.32,29.97,0,-95,0,0.00
2013-1-28,55,48,38,55,47,37,99,97,89,30.01,29.89,0,-7,0,0.00
2013-1-29,64,59,54,58,55,54,99,89,78,29.91,29.35,0,0,0,0.00
2013-1-30,64,47,29,59,42,-100,99,89,79,29.54,29.21,0,-74,0,0.00
2013-1-31,29,24,14,24,18,5,88,78,67,29.98,29.54,0,-111,0,0.00
2013-2-1,18,13,6,9,4,-2,75,66,55,30.33,30.19,0,0,0,0.00
2013-2-2,29,23,17,24,17,9,87,79,69,30.19,29.91,0,0,0,0.00
2013-2-3,25,18,13,20,13,7,85,78,70,30.01,29.88,0,0,0,0.00
2013-2-4,40,29,19,32,22,12,86,76,63,30.00,29.70,0,0,0,0.00
2013-2-5,37,34,24,32,28,21,88,78,71,29.95,29.75,0,0,0,0.00
2013-2-6,40,32,29,29,25,22,83,75,62,30.18,29.95,0,0,0,0.00
2013-2-7,57,41,30,43,29,-100,92,71,47,30.10,29.73,0,-7,0,0.00
2013-2-8,43,34,32,41,29,24,93,82,72,30.27,29.75,0,-36,0,0.00
2013-2-9,44,33,23,29,23,19,87,69,52,30.32,30.09,0,0,0,0.00
2013-2-10,51,41,33,48,34,21,90,76,60,30.09,29.62,0,-127,0,0.00
2013-2-11,52,41,33,49,31,24,90,67,58,29.97,29.62,0,-14,0,0.00
2013-2-12,47,34,23,31,26,20,91,75,48,30.06,29.86,0,0,0,0.00
2013-2-13,47,35,29,30,26,24,88,71,40,29.86,29.70,0,0,0,0.00
2013-2-14,49,40,34,37,33,27,92,77,56,29.93,29.72,0,0,0,0.00
2013-2-15,38,31,24,30,25,17,87,76,56,30.09,29.91,0,0,0,0.00
2013-2-16,26,23,21,19,14,9,84,68,51,30.06,30.01,0,0,0,0.00
2013-2-17,37,24,12,15,9,5,81,56,27,30.14,30.05,0,0,0,0.00
2013-2-18,60,41,26,42,29,13,89,62,41,30.05,29.50,0,-7,0,0.00
2013-2-19,46,28,23,44,21,12,92,74,63,30.05,29.49,0,0,0,0.00
2013-2-20,29,21,12,17,11,4,77,66,46,30.24,30.05,0,0,0,0.00
2013-2-21,38,26,16,26,19,12,92,76,55,30.25,29.94,0,0,0,0.00
2013-2-24,43,36,26,30,26,23,87,69,52,30.05,30.02,0,0,0,0.00
2013-2-25,50,34,22,33,25,19,91,72,47,30.06,29.79,0,0,0,0.00
2013-2-26,42,38,33,41,34,25,98,88,62,29.79,29.30,0,0,0,0.00
2013-2-27,41,35,32,40,33,28,98,91,83,29.63,29.40,0,0,0,0.00
2013-2-28,38,34,32,34,31,29,94,89,82,29.91,29.61,0,0,0,0.00
2013-3-1,34,32,31,31,28,25,90,85,78,29.99,29.88,0,0,0,0.00
2013-3-2,31,29,26,27,22,18,86,76,62,30.03,29.97,0,0,0,0.00
2013-3-3,37,28,21,23,20,17,86,71,48,30.04,29.98,0,0,0,0.00
2013-3-4,41,30,20,28,22,16,90,71,48,30.04,29.87,0,0,0,0.00
2013-3-5,37,35,29,35,31,27,96,86,69,29.88,29.58,0,0,0,0.00
2013-3-6,32,29,27,29,27,25,96,92,89,30.19,29.69,0,0,0,0.00
2013-3-7,35,31,28,29,27,25,92,85,74,30.32,30.19,0,0,0,0.00
2013-3-8,45,33,23,29,25,20,89,73,48,30.40,30.28,0,0,0,0.00
2013-3-9,54,43,32,37,31,25,79,63,47,30.28,29.88,0,0,0,0.00
2013-3-10,67,58,51,44,36,33,63,46,29,29.88,29.66,0,0,0,0.00
2013-3-11,59,46,33,50,42,30,95,86,55,29.80,29.54,0,0,0,0.00
2013-3-12,46,36,32,32,28,24,91,74,46,29.96,29.80,0,0,0,0.00
2013-3-13,33,29,25,29,22,18,87,75,62,30.25,29.95,0,0,0,0.00
2013-3-14,49,31,19,31,22,16,91,73,38,30.27,30.09,0,0,0,0.00
2013-3-15,52,39,25,42,33,23,96,80,60,30.09,29.67,0,0,0,0.00
2013-3-16,46,42,37,43,38,31,96,87,76,29.94,29.53,0,0,0,0.00
2013-3-17,42,36,31,30,27,22,81,70,63,30.07,29.87,0,0,0,0.00
2013-3-18,43,36,32,43,35,30,99,94,84,29.87,29.52,0,0,0,0.00
2013-3-19,45,34,26,34,19,15,89,58,35,30.04,29.76,0,0,0,0.00
2013-3-20,36,28,23,20,14,8,73,56,38,30.04,29.95,0,0,0,0.00
2013-3-21,38,26,17,18,12,7,74,55,35,29.97,29.89,0,0,0,0.00
2013-3-22,49,32,19,22,16,13,82,57,24,29.98,29.91,0,-45,0,0.00
2013-3-23,55,41,34,28,24,20,65,51,30,29.99,29.88,0,-16,0,0.00
2013-3-24,39,33,29,31,29,27,95,88,72,29.51,29.36,0,0,0,0.00
2013-3-25,33,30,28,31,21,-100,95,88,88,29.93,29.42,0,-126,0,0.00
2013-3-26,40,33,28,28,26,24,90,77,55,30.19,29.93,0,0,0,0.00
2013-3-27,42,34,27,29,24,21,87,69,45,30.25,30.17,0,0,0,0.00
2013-3-28,52,37,26,30,25,21,84,64,38,30.29,30.22,0,0,0,0.00
2013-3-29,60,43,30,36,30,25,87,63,38,30.24,30.14,0,0,0,0.00
2013-3-30,61,46,32,36,32,28,91,61,34,30.16,29.85,0,0,0,0.00
2013-3-31,64,51,46,45,40,-100,93,70,39,29.86,29.70,0,-51,0,0.00
2013-4-1,50,41,32,40,26,17,77,56,31,30.08,29.77,0,-68,0,0.00
2013-4-2,49,35,24,26,20,14,84,58,29,30.21,30.08,0,0,0,0.00
2013-4-3,56,37,23,29,21,18,84,55,28,30.34,30.19,0,-14,0,0.00
2013-4-4,66,45,33,35,24,15,65,47,19,30.26,29.93,0,-14,0,0.00
2013-4-5,37,33,31,26,25,23,82,73,58,29.93,29.91,0,0,0,0.00
2013-4-8,67,64,61,55,54,53,76,70,66,29.89,29.83,0,0,0,0.00
2013-4-9,81,66,53,62,55,50,95,71,43,29.93,29.83,0,-107,0,0.00
2013-4-10,82,70,57,67,62,53,93,75,56,29.86,29.71,0,0,0,0.00
2013-4-11,66,59,50,62,27,-100,99,79,93,29.73,29.49,0,-240,0,0.00
2013-4-12,49,42,38,48,35,30,98,77,61,29.85,29.54,0,-8,0,0.00
2013-4-13,53,43,40,39,31,-100,80,70,55,29.94,29.85,0,-170,0,0.00
2013-4-14,73,53,39,53,42,34,91,68,38,29.94,29.74,0,-31,0,0.00
2013-4-15,68,60,56,55,25,-100,76,56,55,29.90,29.77,0,-222,0,0.00
2013-4-16,61,48,49,52,27,-100,100,83,88,30.13,29.83,0,-241,0,0.00
2013-4-17,77,57,48,68,53,-100,100,93,73,30.12,29.83,2,-175,0,0.00
2013-4-18,76,66,58,65,61,54,98,87,66,29.83,29.52,1,0,0,0.00
2013-4-19,55,41,37,54,35,29,97,80,65,29.90,29.51,2,1,0,0.00
2013-4-20,53,40,32,36,30,26,90,68,38,30.33,29.90,1,0,0,0.00
2013-4-21,62,44,30,42,30,23,81,59,36,30.45,30.29,1,0,0,0.00
2013-4-22,76,53,36,49,37,29,82,56,27,30.29,30.03,1,-7,0,0.00
2013-4-23,66,55,47,58,50,41,97,85,63,30.05,29.73,0,-18,0,0.00
2013-4-24,57,44,38,56,40,32,98,85,55,30.14,29.73,1,-7,0,0.00
2013-4-25,59,46,36,42,30,-100,89,66,32,30.30,30.13,3,-54,0,0.00
2013-4-26,67,50,36,48,30,-100,89,63,43,30.36,30.24,1,-119,0,0.00
2013-4-27,65,52,42,53,45,38,96,78,50,30.27,29.95,1,-14,0,0.00
2013-4-28,59,56,54,59,56,53,99,98,96,29.94,29.78,0,-28,0,0.00
2013-4-29,76,61,55,64,55,-100,99,85,54,29.92,29.83,0,-24,0,0.00
2013-4-30,85,66,51,69,55,-100,96,74,51,29.98,29.85,1,-50,0,0.00
2013-5-1,83,64,53,66,57,51,96,78,48,30.09,29.97,1,0,0,0.00
2013-5-2,81,68,60,64,57,54,88,69,42,30.11,29.99,1,0,0,0.00
2013-5-3,74,66,62,65,58,49,94,75,57,30.00,29.84,1,0,0,0.00
2013-5-4,68,62,56,55,46,-100,90,62,50,29.96,29.87,1,-58,0,0.00
2013-5-5,59,56,53,55,42,-100,97,84,79,29.96,29.87,0,-114,0,0.00
2013-5-6,67,59,53,59,53,48,97,83,68,29.91,29.83,1,-22,0,0.00
2013-5-7,80,64,57,60,56,54,93,77,49,29.94,29.88,1,0,0,0.00
2013-5-8,80,66,58,66,58,54,95,77,41,29.97,29.90,0,0,0,0.00
2013-5-9,81,64,57,67,58,55,97,84,45,29.96,29.84,1,-14,0,0.00
2013-5-10,73,60,51,67,57,-100,100,96,73,29.87,29.75,0,0,0,0.00
2013-5-11,69,53,46,61,47,36,92,82,45,29.97,29.81,1,-32,0,0.00
2013-5-12,61,49,40,44,36,-100,88,66,36,30.06,29.97,2,-28,0,0.00
2013-5-13,69,50,40,48,36,-100,90,70,29,30.08,30.04,1,-107,0,0.00
2013-5-14,89,64,50,69,51,38,80,63,38,30.05,29.75,1,0,0,0.00
2013-5-15,91,73,64,72,61,55,82,67,41,29.83,29.76,1,0,0,0.00
2013-5-16,87,66,65,73,39,-100,96,77,46,29.92,29.81,0,0,0,0.00
2013-5-17,80,68,64,71,56,-100,96,85,64,29.98,29.92,0,-34,0,0.00
2013-5-18,81,69,64,69,65,61,96,88,58,30.01,29.92,0,-19,0,0.00
2013-5-28,79,77,71,69,67,64,80,71,67,29.95,29.88,0,0,0,0.00
2013-5-29,82,75,69,67,62,58,79,65,51,30.03,29.94,0,0,0,0.00
2013-5-30,84,76,68,70,66,63,86,73,59,30.06,29.95,0,0,0,0.00
2013-5-31,76,72,66,71,67,63,95,86,77,30.01,29.86,0,0,0,0.00
2013-6-1,75,70,65,69,66,63,96,87,74,29.90,29.78,0,0,0,0.00
2013-6-2,71,66,60,64,59,52,91,79,67,30.00,29.82,2,0,0,0.00
2013-6-3,70,59,48,52,47,43,85,67,47,30.09,30.00,1,0,0,0.00
2013-6-4,79,64,49,53,47,43,88,59,30,30.14,30.05,1,0,0,0.00
2013-6-5,83,72,57,60,55,48,80,56,39,30.08,29.87,1,0,0,0.00
2013-6-6,79,69,63,62,56,51,80,64,51,29.88,29.78,1,0,0,0.00
2013-6-7,75,68,62,60,58,55,88,72,55,29.89,29.82,1,0,0,0.00
2013-6-8,81,71,59,63,59,54,89,67,47,30.01,29.88,0,0,0,0.00
2013-6-9,83,72,62,67,62,58,94,73,43,30.03,29.83,0,0,0,0.00
2013-6-10,76,71,65,67,64,61,97,81,61,29.87,29.78,3,1,0,0.00
2013-6-11,84,74,61,68,64,59,95,72,53,29.99,29.87,2,0,0,0.00
2013-6-12,90,80,69,75,71,66,94,75,57,29.93,29.68,3,0,0,0.00
2013-6-13,83,74,65,71,62,51,93,68,42,30.00,29.62,4,2,0,0.00
2013-6-14,81,69,57,62,56,53,89,66,41,30.08,29.95,1,0,0,0.00
2013-6-15,84,73,59,64,61,57,94,69,42,30.11,29.95,3,0,0,0.00
2013-6-16,81,73,67,70,65,61,90,77,62,30.01,29.93,7,1,0,0.00
2013-6-17,89,77,66,73,66,62,96,72,43,29.98,29.89,1,0,0,0.00
2013-6-18,84,75,65,69,62,57,92,68,40,29.94,29.90,2,0,0,0.00
2013-6-26,74,73,71,68,67,67,86,82,79,29.78,29.75,0,0,0,0.00
2013-6-27,90,77,68,72,68,65,97,77,49,29.82,29.72,3,1,0,0.00
2013-6-28,85,78,68,67,63,55,80,62,39,29.74,29.62,5,2,0,0.00
2013-6-29,77,70,62,66,63,60,95,81,63,29.63,29.60,0,0,0,0.00
2013-6-30,75,71,65,66,63,61,93,78,66,29.88,29.74,3,1,0,0.00
2013-7-1,72,68,65,66,62,60,93,82,71,29.92,29.85,2,1,0,0.00
2013-7-2,76,68,62,68,63,59,94,86,69,30.02,29.94,1,0,0,0.00
2013-7-3,80,70,62,68,64,61,97,82,58,30.10,30.00,2,0,0,0.00
2013-7-4,80,71,61,69,65,60,97,82,59,30.15,30.07,0,0,0,0.00
2013-7-5,83,74,64,70,67,63,97,79,58,30.14,30.06,0,0,0,0.00
2013-7-6,75,72,68,69,67,64,92,85,69,30.12,30.04,2,0,0,0.00
2013-7-7,84,74,64,71,67,62,97,79,57,30.10,30.03,2,0,0,0.00
2013-7-8,87,77,68,73,69,65,94,78,61,30.13,30.03,2,0,0,0.00
2013-7-9,89,81,76,78,72,69,84,76,64,30.07,29.97,3,0,0,0.00
2013-7-10,85,77,69,77,69,-100,94,78,57,29.99,29.85,5,0,0,0.00
2013-7-11,78,71,64,70,58,54,93,64,44,30.06,29.96,3,1,0,0.00
2013-7-12,80,69,59,59,56,54,88,67,42,30.11,30.05,2,0,0,0.00
2013-7-13,85,74,62,64,61,58,90,66,44,30.14,30.08,2,0,0,0.00
2013-7-14,92,81,68,71,68,63,89,65,47,30.20,30.13,0,0,0,0.00
2013-7-15,91,82,73,73,71,69,90,70,49,30.30,30.20,0,0,0,0.00
2013-7-16,94,83,71,74,70,68,93,68,46,30.35,30.28,1,0,0,0.00
2013-7-17,92,84,74,73,71,67,89,66,45,30.36,30.21,0,0,0,0.00
2013-7-18,94,84,73,74,72,68,93,68,46,30.24,30.04,1,0,0,0.00
2013-7-19,91,83,75,76,73,70,93,74,51,30.06,29.89,4,0,0,0.00
2013-7-20,86,74,69,76,68,-100,95,85,64,29.94,29.86,2,0,0,0.00
2013-7-21,87,76,66,73,69,64,96,79,52,29.98,29.88,0,0,0,0.00
2013-7-22,83,74,69,72,69,67,96,83,63,29.91,29.79,0,0,0,0.00
2013-7-23,87,77,68,75,68,58,96,77,51,29.90,29.78,2,0,0,0.00
2013-7-24,75,66,57,59,54,52,88,68,48,30.03,29.90,2,0,0,0.00
2013-7-25,78,67,55,58,55,52,95,67,43,30.11,30.02,0,0,0,0.00
2013-7-26,80,70,57,62,59,55,95,71,49,30.10,29.96,1,0,0,0.00
2013-7-27,75,70,61,66,59,51,96,70,44,29.96,29.87,5,2,0,0.00
2013-7-28,74,63,50,54,51,48,95,68,44,30.01,29.94,4,1,0,0.00
2013-7-29,79,74,63,59,56,53,83,54,44,30.19,30.14,2,0,0,0.00
2013-7-30,77,68,58,66,61,55,95,80,60,30.22,30.10,0,0,0,0.00
2013-7-31,79,71,65,71,66,63,96,86,72,30.11,29.95,0,0,0,0.00
2013-8-1,81,73,64,69,61,53,95,70,39,30.03,29.96,4,1,0,0.00
2013-8-2,81,69,57,67,61,54,95,77,56,30.00,29.95,3,0,0,0.00
2013-8-3,81,74,68,70,65,56,96,75,51,30.08,29.95,1,0,0,0.00
2013-8-4,78,69,58,58,54,50,84,61,40,30.18,30.08,2,0,0,0.00
2013-8-5,80,70,58,62,59,56,95,71,47,30.13,29.95,0,0,0,0.00
2013-8-6,81,74,67,72,66,60,87,78,68,29.97,29.90,0,0,0,0.00
2013-8-7,86,76,70,76,71,68,97,85,66,29.93,29.86,0,0,0,0.00
2013-8-8,86,78,71,75,72,69,96,84,64,29.96,29.90,2,0,0,0.00
2013-8-9,82,75,70,70,67,64,93,78,55,30.02,29.93,1,0,0,0.00
2013-8-10,85,79,68,69,66,62,90,67,50,30.12,30.05,1,0,0,0.00
2013-8-11,82,75,66,67,64,62,92,71,51,30.12,30.06,0,0,0,0.00
2013-8-12,84,74,66,69,66,63,96,77,49,30.10,29.90,0,0,0,0.00
2013-8-13,74,68,59,68,57,-100,93,72,48,30.11,29.88,2,0,0,0.00
2013-8-14,69,60,51,51,48,45,91,67,46,30.20,30.11,1,0,0,0.00
2013-8-15,74,57,51,55,37,-100,95,64,44,30.19,30.10,1,0,0,0.00
2013-8-16,75,64,57,57,50,-100,91,68,42,30.17,30.11,2,0,0,0.00
2013-8-17,80,70,60,59,56,53,83,64,42,30.21,30.13,1,0,0,0.00
2013-8-18,84,72,60,63,57,-100,92,64,42,30.18,30.09,0,0,0,0.00
2013-8-19,84,68,60,66,52,-100,96,71,46,30.15,30.07,1,0,0,0.00
2013-8-20,87,74,62,68,62,-100,96,70,43,30.16,30.07,0,0,0,0.00
2013-8-21,88,83,76,69,67,66,74,59,50,30.08,30.05,1,0,0,0.00
2013-8-22,85,75,66,71,66,64,94,76,54,30.10,30.01,3,0,0,0.00
2013-8-23,83,75,67,67,64,58,90,71,44,30.14,30.06,2,0,0,0.00
2013-8-24,85,73,60,64,58,52,93,61,32,30.27,30.14,0,0,0,0.00
2013-8-25,87,72,58,65,57,-100,96,66,35,30.32,30.22,0,0,0,0.00
2013-8-26,90,75,63,72,67,60,96,77,50,30.24,30.09,3,0,0,0.00
2013-8-27,91,76,70,75,70,67,96,85,53,30.10,30.00,3,0,0,0.00
2013-8-28,93,87,78,75,72,69,82,62,52,30.00,29.92,4,2,0,0.00
2013-8-29,89,80,71,72,68,64,95,72,44,30.06,29.98,1,0,0,0.00
2013-8-30,92,79,67,73,69,65,96,73,47,30.01,29.84,2,0,0,0.00
2013-8-31,95,79,70,75,71,66,92,77,45,29.86,29.74,3,0,0,0.00
2013-9-1,83,74,68,72,67,-100,96,82,64,29.82,29.75,1,0,0,0.00
2013-9-2,82,74,69,70,66,59,96,78,48,29.94,29.79,2,0,0,0.00
2013-9-3,73,66,55,60,54,51,89,67,50,30.08,29.94,1,0,0,0.00
2013-9-4,80,67,53,62,56,51,96,72,42,30.16,30.06,1,0,0,0.00
2013-9-5,84,72,60,64,60,57,94,70,44,30.20,30.13,1,0,0,0.00
2013-9-6,84,72,60,64,56,49,79,59,43,30.24,30.09,0,0,0,0.00
2013-9-7,86,73,60,67,63,57,95,73,45,30.09,29.96,3,0,0,0.00
2013-9-8,87,75,68,73,66,-100,96,77,53,29.99,29.93,0,0,0,0.00
2013-9-9,91,79,67,73,69,65,96,74,51,30.01,29.93,2,0,0,0.00
2013-9-10,95,83,75,74,70,65,91,69,38,30.11,30.00,1,0,0,0.00
2013-9-11,85,79,74,67,65,62,77,63,47,30.05,30.03,0,0,0,0.00
2013-9-12,81,74,66,71,65,50,95,75,41,30.03,29.89,3,1,0,0.00
2013-9-13,67,61,54,54,47,41,87,61,40,30.11,29.99,2,0,0,0.00
2013-9-14,70,57,44,49,44,39,92,65,34,30.19,30.09,1,0,0,0.00
2013-9-15,76,58,46,57,47,-100,96,72,37,30.11,30.01,2,0,0,0.00
2013-9-16,68,62,56,60,54,51,91,76,61,30.28,30.07,2,1,0,0.00
2013-9-17,76,62,51,54,51,48,91,69,39,30.31,30.15,1,0,0,0.00
2013-9-18,69,60,59,55,54,52,83,79,74,30.15,30.05,0,0,0,0.00
2013-9-19,81,71,65,72,68,63,97,88,71,30.09,29.93,1,0,0,0.00
2013-9-20,78,72,67,70,68,65,95,87,72,29.96,29.82,1,0,0,0.00
2013-9-21,70,62,54,65,52,43,95,72,39,29.91,29.79,2,0,0,0.00
2013-9-22,63,52,47,50,45,-100,95,80,62,30.02,29.91,0,0,0,0.00
2013-9-23,68,61,57,48,47,45,71,61,44,30.05,30.02,0,0,0,0.00
2013-9-24,75,61,49,59,52,46,90,74,54,30.06,29.90,1,0,0,0.00
2013-9-25,77,67,57,60,54,49,82,66,46,29.93,29.87,1,0,0,0.00
2013-9-26,76,63,49,57,52,47,96,70,42,30.07,29.94,1,0,0,0.00
2013-9-27,78,63,51,57,52,47,96,73,34,30.17,30.07,0,0,0,0.00
2013-9-28,80,66,52,61,56,50,97,74,46,30.15,30.03,0,0,0,0.00
2013-9-29,66,63,60,64,58,-100,96,88,72,30.04,29.98,0,0,0,0.00
2013-9-30,73,65,61,63,61,59,96,87,68,30.02,29.94,0,0,0,0.00
2013-10-1,70,66,61,64,62,59,93,87,80,30.03,30.00,0,0,0,0.00
2013-10-2,78,69,62,69,65,60,97,88,71,30.11,30.03,0,0,0,0.00
2013-10-3,81,73,67,67,66,65,95,81,59,30.06,29.96,1,0,0,0.00
2013-10-4,81,72,65,72,67,63,96,85,69,30.07,30.00,1,0,0,0.00
2013-10-5,74,70,65,73,68,64,97,93,87,30.03,29.89,1,0,0,0.00
2013-10-6,66,59,47,65,55,39,97,87,62,29.89,29.74,1,0,0,0.00
2013-10-7,61,52,45,48,45,40,91,77,57,30.14,29.81,2,1,0,0.00
2013-10-8,68,55,43,55,47,42,97,77,46,30.25,30.14,0,0,0,0.00
2013-10-9,70,51,43,53,46,41,94,83,50,30.22,30.14,0,0,0,0.00
2013-10-10,72,58,46,57,51,45,97,80,51,30.19,30.07,0,0,0,0.00
2013-10-11,73,57,46,57,49,45,98,78,41,30.11,30.02,0,0,0,0.00
2013-10-12,76,61,48,61,54,47,97,82,55,30.12,30.03,1,0,0,0.00
2013-10-13,66,58,53,61,47,-100,89,72,66,30.26,30.12,0,0,0,0.00
2013-10-14,67,60,51,49,47,44,87,62,43,30.32,30.18,1,0,0,0.00
2013-10-15,66,59,48,63,54,-100,96,89,84,30.17,29.91,1,0,0,0.00
2013-10-16,64,57,44,63,49,40,96,76,56,29.98,29.88,2,0,0,0.00
2013-10-17,54,46,39,50,42,37,97,86,67,29.97,29.88,2,0,0,0.00
2013-10-18,63,50,39,49,43,37,97,77,48,29.99,29.91,3,0,0,0.00
2013-10-19,52,45,41,44,39,35,95,80,54,29.97,29.87,2,0,0,0.00
2013-10-20,62,49,39,44,38,-100,89,69,47,29.98,29.91,1,0,0,0.00
2013-10-21,61,51,42,47,42,29,84,74,61,30.00,29.89,1,0,0,0.00
2013-10-22,53,40,29,39,32,26,93,73,42,30.03,29.81,0,0,0,0.00
2013-10-23,46,40,34,39,34,28,96,79,50,30.05,29.77,2,0,0,0.00
2013-10-24,41,38,35,36,33,27,90,80,70,30.28,30.04,1,0,0,0.00
2013-10-25,47,40,28,29,26,23,89,60,39,30.44,30.24,1,0,0,0.00
2013-10-26,57,43,34,41,31,25,74,63,50,30.24,29.91,3,1,0,0.00
2013-10-27,54,40,29,38,30,-100,95,71,41,30.10,30.03,2,0,0,0.00
2013-10-28,59,41,29,43,31,-100,97,76,35,30.29,30.06,0,0,0,0.00
2013-10-29,55,45,34,47,40,32,95,81,65,30.33,30.19,0,0,0,0.00
2013-10-30,64,56,50,63,55,47,98,96,88,30.19,29.95,0,0,0,0.00
2013-10-31,65,62,59,64,60,56,97,93,86,29.95,29.31,5,1,0,0.00
2013-11-1,57,52,47,48,44,39,93,73,62,29.76,29.63,2,1,0,0.00
2013-11-2,52,46,42,42,38,34,94,76,52,30.11,29.76,3,1,0,0.00
2013-11-3,52,41,31,41,33,-100,97,77,52,30.31,30.12,0,0,0,0.00
2013-11-4,54,47,40,42,38,34,83,73,58,30.32,30.24,1,0,0,0.00
2013-11-5,58,52,45,48,44,40,90,76,64,30.35,30.13,0,0,0,0.00
2013-11-6,60,54,41,55,47,37,94,81,63,30.12,29.92,1,0,0,0.00
2013-11-7,47,40,32,37,30,24,88,69,41,30.29,30.11,3,0,0,0.00
2013-11-8,49,37,28,33,29,25,95,73,43,30.36,30.18,0,0,0,0.00
2013-11-9,59,49,41,41,34,-100,69,58,51,30.16,29.98,3,1,0,0.00
2013-11-10,48,41,32,37,31,28,90,68,53,30.34,30.12,2,0,0,0.00
2013-11-11,50,40,29,41,34,26,93,80,59,30.32,30.08,1,0,0,0.00
2013-11-12,35,30,25,29,23,20,91,75,59,30.63,30.33,1,0,0,0.00
2013-11-13,37,27,18,21,18,15,92,69,43,30.61,30.34,1,0,0,0.00
2013-11-14,51,40,29,22,21,19,68,48,29,30.33,30.09,1,0,0,0.00
2013-11-15,52,46,41,34,28,21,75,49,39,30.10,30.02,1,0,0,0.00
2013-11-16,61,52,40,58,46,-100,94,85,75,30.03,29.74,1,0,0,0.00
2013-11-17,67,60,50,62,56,40,97,87,61,29.79,29.40,4,1,0,0.00
2013-11-18,49,43,35,41,33,25,86,67,41,30.20,29.81,5,2,0,0.00
2013-11-19,43,35,29,30,27,25,86,74,57,30.34,30.21,1,0,0,0.00
2013-11-20,47,38,30,34,29,25,85,72,58,30.29,30.15,1,0,0,0.00
2013-11-21,50,47,44,48,43,34,96,84,63,30.24,30.16,0,0,0,0.00
2013-11-22,51,44,34,50,41,30,98,90,78,30.42,30.14,1,0,0,0.00
2013-11-23,33,26,20,29,17,-100,88,69,52,30.59,30.39,2,0,0,0.00
2013-11-24,26,20,14,11,9,5,78,62,40,30.68,30.48,1,0,0,0.00
2013-11-25,34,27,17,23,16,11,79,63,49,30.49,30.14,0,0,0,0.00
2013-11-26,37,33,30,28,26,23,84,73,60,30.16,29.95,1,0,0,0.00
2013-11-27,30,23,17,24,14,10,80,69,55,30.27,29.99,1,1,0,0.00
2013-12-14,36,32,28,35,29,-100,96,92,89,30.09,29.71,1,0,0,0.00
2013-12-15,29,23,19,26,18,11,92,78,66,30.08,29.92,3,1,0,0.00
2013-12-16,29,24,20,27,21,16,93,87,84,30.08,29.97,0,0,0,0.00
2013-12-17,28,25,21,27,23,18,95,88,79,30.13,29.98,1,0,0,0.00
2013-12-18,37,26,15,20,16,10,91,67,41,30.22,29.97,0,0,0,0.00
2013-12-19,51,45,38,45,37,21,82,73,50,30.00,29.86,1,0,0,0.00
2013-12-20,61,56,51,58,52,45,96,87,76,29.85,29.74,2,1,0,0.00
2013-12-25,30,25,18,25,16,12,81,70,61,30.42,30.16,0,0,0,0.00
2013-12-26,36,31,24,27,23,19,86,72,61,30.35,30.14,2,0,0,0.00
2013-12-27,45,36,28,33,28,23,86,74,61,30.35,30.23,1,0,0,0.00
2013-12-28,52,40,33,35,29,-100,88,68,46,30.23,29.95,0,0,0,0.00
2013-12-29,43,36,26,34,30,23,92,77,59,30.06,29.81,3,1,0,0.00
2013-12-30,26,21,18,23,13,9,88,72,63,30.27,30.07,1,0,0,0.00
2013-12-31,22,21,21,15,13,11,76,70,66,30.24,30.15,1,1,0,0.00